Buoy 43528

sailwx.info

Track history (hours):
 
Tides and Currents Weather Stations Pressure Air Temp Water Temp Dewpoint Dewpoint Depression Visibility Wind Speed Wind Dir Waves Ship Positions

Drifting buoy 43528

Last reported at 2014-Aug-28 00:00 UTC. Time now 2014-Aug-28 05:26 UTC.
Position N 13°54' W 120°39'.

Water temperature 27.9 ° C

Date/timePositionNaut miles runAvg speedWind from/ knotsBaromVisibWave heightAir tempDewpointWater temp
2014-Aug-28 00:00N 13°54' W 120°39'1 1.5 27.9
2014-Aug-27 23:00N 13°53' W 120°39'1 0.9 27.9
2014-Aug-27 22:00N 13°52' W 120°39'1 0.9 27.9
2014-Aug-27 21:00N 13°53' W 120°39'1 0.4 27.9
2014-Aug-27 18:00N 13°52' W 120°38'0 0.3 27.9
2014-Aug-27 17:00N 13°52' W 120°39'1 0.2 27.9
2014-Aug-27 14:00N 13°52' W 120°38'0 0.2 27.9
2014-Aug-27 13:00N 13°52' W 120°38'0 0.1 27.9
2014-Aug-27 10:00N 13°52' W 120°38'1 1.0 27.9
2014-Aug-27 09:00N 13°52' W 120°39'0 0.0 27.9
2014-Aug-27 05:00N 13°52' W 120°39'0 0.1 27.9
2014-Aug-27 04:00N 13°52' W 120°39'1 1.2 28.0
2014-Aug-27 03:00N 13°52' W 120°40'1 0.3 28.0
2014-Aug-27 00:00N 13°51' W 120°41'1 0.5 28.1
2014-Aug-26 22:00N 13°51' W 120°42'0 0.3 28.1
2014-Aug-26 21:00N 13°51' W 120°42'3 2.5 28.1
2014-Aug-26 20:00N 13°49' W 120°44'1 1.0 28.0
2014-Aug-26 19:00N 13°49' W 120°43'0 0.0 28.0
2014-Aug-26 18:00N 13°49' W 120°43'2 1.0 28.0
2014-Aug-26 16:00N 13°48' W 120°45'0 0.0 28.0
2014-Aug-26 15:00N 13°48' W 120°45'0 0.3 28.0
2014-Aug-26 14:00N 13°48' W 120°45'0 0.3 28.0
2014-Aug-26 13:00N 13°48' W 120°45'0 0.0 28.0
2014-Aug-26 12:00N 13°48' W 120°45'0 0.2 28.0
2014-Aug-26 11:00N 13°48' W 120°45'0 0.3 28.0
2014-Aug-26 10:00N 13°48' W 120°45'0 0.0 28.0
2014-Aug-26 09:00N 13°48' W 120°45'0 0.0 28.0
2014-Aug-26 08:00N 13°48' W 120°45'2 0.3 28.0
2014-Aug-26 01:00N 13°51' W 120°45'1 0.3 28.1
2014-Aug-25 23:00N 13°51' W 120°46'0 0.4 28.2
2014-Aug-25 22:00N 13°52' W 120°46'1 0.3 28.2
2014-Aug-25 20:00N 13°52' W 120°46'1 0.7 28.1
2014-Aug-25 18:00N 13°54' W 120°45'1 1.4 28.1
2014-Aug-25 17:00N 13°55' W 120°46'0 0.0 28.0
2014-Aug-25 16:00N 13°55' W 120°46'0 0.0 28.0
2014-Aug-25 14:00N 13°55' W 120°46'1 0.6 28.0
2014-Aug-25 13:00N 13°55' W 120°46'1 0.3 28.0
2014-Aug-25 09:00N 13°56' W 120°46'0 0.0 28.0
2014-Aug-25 06:00N 13°56' W 120°46'1 0.6 28.1
2014-Aug-25 04:00N 13°57' W 120°45'2 0.5 28.1
2014-Aug-24 23:00N 13°59' W 120°44'0 0.4 28.2
2014-Aug-24 22:00N 13°59' W 120°43'1 0.6 28.2
2014-Aug-24 20:00N 13°60' W 120°42'2 2.0 28.1
2014-Aug-24 19:00N 14°01' W 120°41'1 0.5 28.1
2014-Aug-24 18:00N 14°01' W 120°41'1 0.8 28.0
2014-Aug-24 17:00N 14°02' W 120°41'3 2.6 28.0
2014-Aug-24 16:00N 14°02' W 120°39'2 0.6 28.0
2014-Aug-24 13:00N 14°03' W 120°37'2 1.5 27.9
2014-Aug-24 12:00N 14°04' W 120°36'1 0.7 28.0
2014-Aug-24 11:00N 14°04' W 120°37'5 1.0 28.0
2014-Aug-24 06:00N 14°07' W 120°33'2 0.9 28.0
2014-Aug-24 04:00N 14°08' W 120°31'3 3.0 28.1
2014-Aug-24 03:00N 14°11' W 120°30'3 0.9 28.1
2014-Aug-24 00:00N 14°13' W 120°28'1 0.9 28.3
2014-Aug-23 23:00N 14°14' W 120°28'1 0.6 28.3
2014-Aug-23 21:00N 14°15' W 120°27'2 0.5 28.2
2014-Aug-23 17:00N 14°17' W 120°27'0 0.5 28.0
2014-Aug-23 16:00N 14°17' W 120°27'1 0.5 27.9
2014-Aug-23 14:00N 14°17' W 120°26'1 0.3 27.9
2014-Aug-23 12:00N 14°17' W 120°26'2 0.7 27.9
2014-Aug-23 09:00N 14°18' W 120°23'0 0.0 27.9
2014-Aug-23 06:00N 14°18' W 120°23'0 0.1 28.0
2014-Aug-23 05:00N 14°18' W 120°23'1 0.2 28.0
2014-Aug-23 02:00N 14°19' W 120°23'0 0.4 28.0
2014-Aug-23 01:00N 14°19' W 120°23'0 0.5 28.1
2014-Aug-23 00:00N 14°18' W 120°23'1 0.4 28.1
2014-Aug-22 21:00N 14°19' W 120°21'1 0.1 28.1
2014-Aug-22 17:00N 14°19' W 120°21'0 0.0 28.0
2014-Aug-22 16:00N 14°19' W 120°21'1 0.4 27.9
2014-Aug-22 14:00N 14°19' W 120°20'0 0.5 27.9
2014-Aug-22 13:00N 14°19' W 120°20'0 0.3 27.9
2014-Aug-22 12:00N 14°19' W 120°20'1 0.4 27.9
2014-Aug-22 09:00N 14°20' W 120°19'0 0.0 27.9
2014-Aug-22 06:00N 14°20' W 120°19'1 0.2 27.9
2014-Aug-22 03:00N 14°20' W 120°19'1 0.4 27.9
2014-Aug-22 00:00N 14°19' W 120°20'1 0.5 28.0
2014-Aug-21 23:00N 14°19' W 120°20'0 0.0 27.9
2014-Aug-21 21:00N 14°19' W 120°20'0 0.0 28.0
2014-Aug-21 20:00N 14°19' W 120°20'2 0.4 27.9
2014-Aug-21 16:00N 14°17' W 120°19'1 0.2 27.8
2014-Aug-21 13:00N 14°17' W 120°18'0 0.3 27.8
2014-Aug-21 12:00N 14°17' W 120°18'1 0.5 27.9
2014-Aug-21 10:00N 14°17' W 120°17'1 0.1 27.9
2014-Aug-21 06:00N 14°17' W 120°17'2 0.5 27.9
2014-Aug-21 03:00N 14°19' W 120°18'1 0.5 27.9
2014-Aug-21 02:00N 14°18' W 120°18'1 0.7 27.9
2014-Aug-21 01:00N 14°18' W 120°19'1 0.6 27.9
2014-Aug-21 00:00N 14°19' W 120°19'0 0.0 28.0
2014-Aug-20 21:00N 14°19' W 120°19'2 0.6 28.0
2014-Aug-20 17:00N 14°20' W 120°21'0 0.2 27.9
2014-Aug-20 15:00N 14°20' W 120°21'2 0.4 27.9
2014-Aug-20 10:00N 14°19' W 120°23'0 0.0 27.9
2014-Aug-20 06:00N 14°19' W 120°23'0 0.2 28.0
2014-Aug-20 05:00N 14°20' W 120°23'0 0.5 28.0
2014-Aug-20 04:00N 14°19' W 120°23'1 1.1 28.0
2014-Aug-20 03:00N 14°20' W 120°24'0 0.0 28.0
2014-Aug-20 02:00N 14°20' W 120°24'2 0.5 28.0
2014-Aug-19 21:00N 14°22' W 120°25'1 0.3 28.0
2014-Aug-19 18:00N 14°22' W 120°25'2 1.5 28.0
2014-Aug-19 17:00N 14°23' W 120°26'1 0.4 28.0
2014-Aug-19 14:00N 14°24' W 120°25'1 0.4 28.1
2014-Aug-19 11:00N 14°25' W 120°26'4 4.1 28.1
2014-Aug-19 10:00N 14°29' W 120°27'0 0.0 28.1
2014-Aug-19 06:00N 14°29' W 120°27'3 1.3 28.2
2014-Aug-19 04:00N 14°31' W 120°28'5 1.6 28.3
2014-Aug-19 01:00N 14°34' W 120°32'1 0.6 28.3
2014-Aug-19 00:00N 14°35' W 120°32'1 1.2 28.3
2014-Aug-18 23:00N 14°35' W 120°33'2 1.8 28.3
2014-Aug-18 22:00N 14°35' W 120°35'2 1.8 28.3
2014-Aug-18 21:00N 14°35' W 120°33'2 0.6 28.3
2014-Aug-18 18:00N 14°35' W 120°35'1 0.3 28.3
2014-Aug-18 16:00N 14°35' W 120°34'1 0.4 28.3
2014-Aug-18 13:00N 14°35' W 120°33'1 0.3 28.4
2014-Aug-18 11:00N 14°35' W 120°33'1 0.8 28.4
2014-Aug-18 10:00N 14°36' W 120°32'0 0.0 28.4
2014-Aug-18 09:00N 14°36' W 120°32'2 0.6 28.4
2014-Aug-18 05:00N 14°37' W 120°30'1 1.2 28.4
2014-Aug-18 04:00N 14°38' W 120°29'0 0.0 28.4
2014-Aug-18 03:00N 14°38' W 120°29'2 1.1 28.5
2014-Aug-18 01:00N 14°40' W 120°28'0 0.2 28.5
2014-Aug-18 00:00N 14°40' W 120°28'   28.5
Track history (hours):
 
Tides and Currents Weather Stations Pressure Air Temp Water Temp Dewpoint Dewpoint Depression Visibility Wind Speed Wind Dir Waves Ship Positions

Drifting buoy 43528

Last reported at 2014-Aug-28 00:00 UTC. Time now 2014-Aug-28 05:26 UTC.
Position N 13°54' W 120°39'.

Water temperature 27.9 ° C

Date/timePositionNaut miles runAvg speedWind from/ knotsBaromVisibWave heightAir tempDewpointWater temp
2014-Aug-28 00:00N 13°54' W 120°39'1 1.5 27.9
2014-Aug-27 23:00N 13°53' W 120°39'1 0.9 27.9
2014-Aug-27 22:00N 13°52' W 120°39'1 0.9 27.9
2014-Aug-27 21:00N 13°53' W 120°39'1 0.4 27.9
2014-Aug-27 18:00N 13°52' W 120°38'0 0.3 27.9
2014-Aug-27 17:00N 13°52' W 120°39'1 0.2 27.9
2014-Aug-27 14:00N 13°52' W 120°38'0 0.2 27.9
2014-Aug-27 13:00N 13°52' W 120°38'0 0.1 27.9
2014-Aug-27 10:00N 13°52' W 120°38'1 1.0 27.9
2014-Aug-27 09:00N 13°52' W 120°39'0 0.0 27.9
2014-Aug-27 05:00N 13°52' W 120°39'0 0.1 27.9
2014-Aug-27 04:00N 13°52' W 120°39'1 1.2 28.0
2014-Aug-27 03:00N 13°52' W 120°40'1 0.3 28.0
2014-Aug-27 00:00N 13°51' W 120°41'1 0.5 28.1
2014-Aug-26 22:00N 13°51' W 120°42'0 0.3 28.1
2014-Aug-26 21:00N 13°51' W 120°42'3 2.5 28.1
2014-Aug-26 20:00N 13°49' W 120°44'1 1.0 28.0
2014-Aug-26 19:00N 13°49' W 120°43'0 0.0 28.0
2014-Aug-26 18:00N 13°49' W 120°43'2 1.0 28.0
2014-Aug-26 16:00N 13°48' W 120°45'0 0.0 28.0
2014-Aug-26 15:00N 13°48' W 120°45'0 0.3 28.0
2014-Aug-26 14:00N 13°48' W 120°45'0 0.3 28.0
2014-Aug-26 13:00N 13°48' W 120°45'0 0.0 28.0
2014-Aug-26 12:00N 13°48' W 120°45'0 0.2 28.0
2014-Aug-26 11:00N 13°48' W 120°45'0 0.3 28.0
2014-Aug-26 10:00N 13°48' W 120°45'0 0.0 28.0
2014-Aug-26 09:00N 13°48' W 120°45'0 0.0 28.0
2014-Aug-26 08:00N 13°48' W 120°45'2 0.3 28.0
2014-Aug-26 01:00N 13°51' W 120°45'1 0.3 28.1
2014-Aug-25 23:00N 13°51' W 120°46'0 0.4 28.2
2014-Aug-25 22:00N 13°52' W 120°46'1 0.3 28.2
2014-Aug-25 20:00N 13°52' W 120°46'1 0.7 28.1
2014-Aug-25 18:00N 13°54' W 120°45'1 1.4 28.1
2014-Aug-25 17:00N 13°55' W 120°46'0 0.0 28.0
2014-Aug-25 16:00N 13°55' W 120°46'0 0.0 28.0
2014-Aug-25 14:00N 13°55' W 120°46'1 0.6 28.0
2014-Aug-25 13:00N 13°55' W 120°46'1 0.3 28.0
2014-Aug-25 09:00N 13°56' W 120°46'0 0.0 28.0
2014-Aug-25 06:00N 13°56' W 120°46'1 0.6 28.1
2014-Aug-25 04:00N 13°57' W 120°45'2 0.5 28.1
2014-Aug-24 23:00N 13°59' W 120°44'0 0.4 28.2
2014-Aug-24 22:00N 13°59' W 120°43'1 0.6 28.2
2014-Aug-24 20:00N 13°60' W 120°42'2 2.0 28.1
2014-Aug-24 19:00N 14°01' W 120°41'1 0.5 28.1
2014-Aug-24 18:00N 14°01' W 120°41'1 0.8 28.0
2014-Aug-24 17:00N 14°02' W 120°41'3 2.6 28.0
2014-Aug-24 16:00N 14°02' W 120°39'2 0.6 28.0
2014-Aug-24 13:00N 14°03' W 120°37'2 1.5 27.9
2014-Aug-24 12:00N 14°04' W 120°36'1 0.7 28.0
2014-Aug-24 11:00N 14°04' W 120°37'5 1.0 28.0
2014-Aug-24 06:00N 14°07' W 120°33'2 0.9 28.0
2014-Aug-24 04:00N 14°08' W 120°31'3 3.0 28.1
2014-Aug-24 03:00N 14°11' W 120°30'3 0.9 28.1
2014-Aug-24 00:00N 14°13' W 120°28'1 0.9 28.3
2014-Aug-23 23:00N 14°14' W 120°28'1 0.6 28.3
2014-Aug-23 21:00N 14°15' W 120°27'2 0.5 28.2
2014-Aug-23 17:00N 14°17' W 120°27'0 0.5 28.0
2014-Aug-23 16:00N 14°17' W 120°27'1 0.5 27.9
2014-Aug-23 14:00N 14°17' W 120°26'1 0.3 27.9
2014-Aug-23 12:00N 14°17' W 120°26'2 0.7 27.9
2014-Aug-23 09:00N 14°18' W 120°23'0 0.0 27.9
2014-Aug-23 06:00N 14°18' W 120°23'0 0.1 28.0
2014-Aug-23 05:00N 14°18' W 120°23'1 0.2 28.0
2014-Aug-23 02:00N 14°19' W 120°23'0 0.4 28.0
2014-Aug-23 01:00N 14°19' W 120°23'0 0.5 28.1
2014-Aug-23 00:00N 14°18' W 120°23'1 0.4 28.1
2014-Aug-22 21:00N 14°19' W 120°21'1 0.1 28.1
2014-Aug-22 17:00N 14°19' W 120°21'0 0.0 28.0
2014-Aug-22 16:00N 14°19' W 120°21'1 0.4 27.9
2014-Aug-22 14:00N 14°19' W 120°20'0 0.5 27.9
2014-Aug-22 13:00N 14°19' W 120°20'0 0.3 27.9
2014-Aug-22 12:00N 14°19' W 120°20'1 0.4 27.9
2014-Aug-22 09:00N 14°20' W 120°19'0 0.0 27.9
2014-Aug-22 06:00N 14°20' W 120°19'1 0.2 27.9
2014-Aug-22 03:00N 14°20' W 120°19'1 0.4 27.9
2014-Aug-22 00:00N 14°19' W 120°20'1 0.5 28.0
2014-Aug-21 23:00N 14°19' W 120°20'0 0.0 27.9
2014-Aug-21 21:00N 14°19' W 120°20'0 0.0 28.0
2014-Aug-21 20:00N 14°19' W 120°20'2 0.4 27.9
2014-Aug-21 16:00N 14°17' W 120°19'1 0.2 27.8
2014-Aug-21 13:00N 14°17' W 120°18'0 0.3 27.8
2014-Aug-21 12:00N 14°17' W 120°18'1 0.5 27.9
2014-Aug-21 10:00N 14°17' W 120°17'1 0.1 27.9
2014-Aug-21 06:00N 14°17' W 120°17'2 0.5 27.9
2014-Aug-21 03:00N 14°19' W 120°18'1 0.5 27.9
2014-Aug-21 02:00N 14°18' W 120°18'1 0.7 27.9
2014-Aug-21 01:00N 14°18' W 120°19'1 0.6 27.9
2014-Aug-21 00:00N 14°19' W 120°19'0 0.0 28.0
2014-Aug-20 21:00N 14°19' W 120°19'2 0.6 28.0
2014-Aug-20 17:00N 14°20' W 120°21'0 0.2 27.9
2014-Aug-20 15:00N 14°20' W 120°21'2 0.4 27.9
2014-Aug-20 10:00N 14°19' W 120°23'0 0.0 27.9
2014-Aug-20 06:00N 14°19' W 120°23'0 0.2 28.0
2014-Aug-20 05:00N 14°20' W 120°23'0 0.5 28.0
2014-Aug-20 04:00N 14°19' W 120°23'1 1.1 28.0
2014-Aug-20 03:00N 14°20' W 120°24'0 0.0 28.0
2014-Aug-20 02:00N 14°20' W 120°24'2 0.5 28.0
2014-Aug-19 21:00N 14°22' W 120°25'1 0.3 28.0
2014-Aug-19 18:00N 14°22' W 120°25'2 1.5 28.0
2014-Aug-19 17:00N 14°23' W 120°26'1 0.4 28.0
2014-Aug-19 14:00N 14°24' W 120°25'1 0.4 28.1
2014-Aug-19 11:00N 14°25' W 120°26'4 4.1 28.1
2014-Aug-19 10:00N 14°29' W 120°27'0 0.0 28.1
2014-Aug-19 06:00N 14°29' W 120°27'3 1.3 28.2
2014-Aug-19 04:00N 14°31' W 120°28'5 1.6 28.3
2014-Aug-19 01:00N 14°34' W 120°32'1 0.6 28.3
2014-Aug-19 00:00N 14°35' W 120°32'1 1.2 28.3
2014-Aug-18 23:00N 14°35' W 120°33'2 1.8 28.3
2014-Aug-18 22:00N 14°35' W 120°35'2 1.8 28.3
2014-Aug-18 21:00N 14°35' W 120°33'2 0.6 28.3
2014-Aug-18 18:00N 14°35' W 120°35'1 0.3 28.3
2014-Aug-18 16:00N 14°35' W 120°34'1 0.4 28.3
2014-Aug-18 13:00N 14°35' W 120°33'1 0.3 28.4
2014-Aug-18 11:00N 14°35' W 120°33'1 0.8 28.4
2014-Aug-18 10:00N 14°36' W 120°32'0 0.0 28.4
2014-Aug-18 09:00N 14°36' W 120°32'2 0.6 28.4
2014-Aug-18 05:00N 14°37' W 120°30'1 1.2 28.4
2014-Aug-18 04:00N 14°38' W 120°29'0 0.0 28.4
2014-Aug-18 03:00N 14°38' W 120°29'2 1.1 28.5
2014-Aug-18 01:00N 14°40' W 120°28'0 0.2 28.5
2014-Aug-18 00:00N 14°40' W 120°28'   28.5

Dump ship's entire track history